Time;durP1;ratioP1;P1;durP2;ratioP2;P2;SDS_P1;SDS_P2;PMS_P1;PMS_P2;Temp;Humidity;BMP_temperature;BMP_pressure;BME280_temperature;BME280_humidity;BME280_pressure;Samples;Min_cycle;Max_cycle;Signal;HPM_P1;HPM_P2
2023/06/13 00:00:10;;;;;;;3.37;2.50;;;19.80;99.90;;;;;;5059393;28;20637;-70
2023/06/13 00:02:38;;;;;;;4.00;2.27;;;20.00;99.90;;;;;;5071541;28;20180;-72
2023/06/13 00:05:07;;;;;;;9.03;2.97;;;20.00;99.90;;;;;;5069790;28;20197;-69
2023/06/13 00:07:37;;;;;;;3.50;2.63;;;20.20;99.90;;;;;;5070570;28;20197;-71
2023/06/13 00:10:06;;;;;;;4.57;2.97;;;19.50;99.90;;;;;;5034412;28;20587;-72
2023/06/13 00:12:37;;;;;;;5.80;2.53;;;19.20;99.90;;;;;;5033166;28;20606;-70
2023/06/13 00:15:06;;;;;;;4.93;2.17;;;19.00;99.90;;;;;;5051705;28;20228;-72
2023/06/13 00:17:36;;;;;;;6.50;2.27;;;19.20;99.90;;;;;;5051614;28;20542;-70
2023/06/13 00:20:08;;;;;;;6.50;2.33;;;19.80;99.90;;;;;;5068980;28;20236;-72
2023/06/13 00:22:36;;;;;;;4.53;2.40;;;19.90;99.90;;;;;;5070972;28;20190;-72
2023/06/13 00:25:04;;;;;;;5.17;2.50;;;19.30;99.90;;;;;;5071582;28;20259;-72
2023/06/13 00:27:33;;;;;;;6.63;2.60;;;18.50;99.90;;;;;;5071293;28;20230;-71
2023/06/13 00:30:00;;;;;;;5.27;3.03;;;17.40;99.90;;;;;;5071360;28;20176;-72
2023/06/13 00:32:28;;;;;;;12.47;3.40;;;17.30;99.90;;;;;;5071485;28;20168;-73
2023/06/13 00:34:56;;;;;;;6.40;3.33;;;17.10;99.90;;;;;;5070999;28;20172;-72
2023/06/13 00:37:23;;;;;;;8.40;3.07;;;17.10;99.90;;;;;;5071510;28;20517;-72
2023/06/13 00:39:51;;;;;;;4.37;2.30;;;17.80;99.90;;;;;;5071402;28;20703;-72
2023/06/13 00:42:20;;;;;;;4.93;2.37;;;17.80;99.90;;;;;;5070904;28;20345;-73
2023/06/13 00:44:48;;;;;;;4.83;1.73;;;17.80;99.90;;;;;;5071243;28;20349;-71
2023/06/13 00:47:17;;;;;;;7.17;2.13;;;17.20;99.90;;;;;;5071347;28;20208;-74
2023/06/13 00:49:46;;;;;;;4.80;2.40;;;17.50;99.90;;;;;;5071192;28;20266;-76
2023/06/13 00:52:14;;;;;;;9.27;2.53;;;17.80;99.90;;;;;;5071278;28;20239;-73
2023/06/13 00:54:41;;;;;;;4.87;2.33;;;17.80;99.90;;;;;;5071369;28;20318;-72
2023/06/13 00:57:10;;;;;;;3.53;2.10;;;17.90;99.90;;;;;;5036471;28;20188;-72
2023/06/13 00:59:37;;;;;;;3.93;1.90;;;17.70;99.90;;;;;;5071181;28;20262;-71
2023/06/13 01:02:06;;;;;;;5.50;2.87;;;17.20;99.90;;;;;;5071098;28;20237;-73
2023/06/13 01:04:34;;;;;;;4.17;2.43;;;16.90;99.90;;;;;;5070570;28;20239;-72
2023/06/13 01:07:03;;;;;;;5.20;2.63;;;16.80;99.90;;;;;;5071060;28;20180;-72
2023/06/13 01:09:31;;;;;;;6.00;2.30;;;17.00;99.90;;;;;;5072558;28;20172;-73
2023/06/13 01:12:08;;;;;;;6.17;2.20;;;16.90;99.90;;;;;;5074454;28;20637;-72
2023/06/13 01:15:10;;;;;;;8.73;2.53;;;17.20;99.90;;;;;;5074742;28;20549;-73
2023/06/13 01:17:49;;;;;;;3.30;1.90;;;17.40;99.90;;;;;;5074411;28;20211;-70
2023/06/13 01:20:20;;;;;;;3.27;1.70;;;18.10;99.90;;;;;;5074224;28;20263;-70
2023/06/13 01:23:15;;;;;;;5.63;1.97;;;18.00;99.90;;;;;;5073056;28;20195;-71
2023/06/13 01:26:13;;;;;;;7.10;1.80;;;17.80;99.90;;;;;;5058077;28;20877;-70
2023/06/13 01:28:43;;;;;;;5.27;2.13;;;18.50;99.90;;;;;;5058750;28;20258;-70
2023/06/13 01:31:14;;;;;;;10.87;2.17;;;19.50;99.90;;;;;;5056065;28;20320;-69
2023/06/13 01:33:42;;;;;;;6.17;2.23;;;19.60;99.90;;;;;;5074347;28;20180;-71
2023/06/13 01:36:11;;;;;;;3.20;1.77;;;20.40;99.90;;;;;;5068775;28;20658;-70
2023/06/13 01:38:39;;;;;;;4.63;2.27;;;21.10;99.90;;;;;;5059932;28;20188;-70
2023/06/13 01:41:07;;;;;;;4.57;2.30;;;21.40;99.90;;;;;;5073076;28;20183;-71
2023/06/13 01:43:35;;;;;;;3.83;2.10;;;21.00;99.90;;;;;;5054107;28;20212;-70
2023/06/13 01:46:23;;;;;;;3.43;1.50;;;20.40;99.90;;;;;;5054743;28;20322;-69
2023/06/13 01:49:13;;;;;;;4.23;1.63;;;20.20;99.90;;;;;;5055293;28;20637;-70
2023/06/13 01:52:11;;;;;;;5.47;2.40;;;20.00;99.90;;;;;;5060377;28;20201;-69
2023/06/13 01:54:45;;;;;;;5.90;2.27;;;19.50;99.90;;;;;;5070648;28;20196;-69
2023/06/13 01:57:16;;;;;;;5.47;2.20;;;19.70;99.90;;;;;;5073688;28;20258;-69
2023/06/13 01:59:47;;;;;;;3.20;1.60;;;19.70;99.90;;;;;;5073869;28;20199;-69
2023/06/13 02:02:16;;;;;;;5.53;1.87;;;19.80;99.90;;;;;;5048836;28;20274;-69
2023/06/13 02:04:44;;;;;;;2.73;1.40;;;19.70;99.90;;;;;;5053485;28;20576;-69
2023/06/13 02:07:12;;;;;;;5.70;1.40;;;19.70;99.90;;;;;;5053558;28;20719;-69
2023/06/13 02:09:39;;;;;;;3.57;1.80;;;19.20;99.90;;;;;;5053735;28;20185;-70
2023/06/13 02:12:08;;;;;;;5.13;1.50;;;19.10;99.90;;;;;;5059004;28;20661;-71
2023/06/13 02:14:36;;;;;;;4.53;1.60;;;19.10;99.90;;;;;;5073706;28;20547;-71
2023/06/13 02:17:05;;;;;;;3.93;1.50;;;19.10;99.90;;;;;;5073199;28;20196;-70
2023/06/13 02:19:33;;;;;;;3.40;1.77;;;19.30;99.90;;;;;;5069507;28;20776;-72
2023/06/13 02:22:00;;;;;;;2.90;1.63;;;19.20;99.90;;;;;;5063133;28;20279;-71
2023/06/13 02:24:29;;;;;;;8.13;1.83;;;19.40;99.90;;;;;;5054013;28;20214;-69
2023/06/13 02:26:56;;;;;;;3.57;1.40;;;19.40;99.90;;;;;;5071814;28;20175;-68
2023/06/13 02:29:24;;;;;;;4.03;1.43;;;19.20;99.90;;;;;;5073427;28;20648;-70
2023/06/13 02:31:52;;;;;;;2.33;1.30;;;19.30;99.90;;;;;;5073050;28;20603;-70
2023/06/13 02:34:20;;;;;;;2.60;1.33;;;19.90;99.90;;;;;;5072849;28;20185;-70
2023/06/13 02:36:48;;;;;;;3.10;1.40;;;19.90;99.90;;;;;;5061183;28;20238;-70
2023/06/13 02:39:15;;;;;;;2.00;0.90;;;20.60;99.90;;;;;;5053130;28;20186;-70
2023/06/13 02:45:05;;;;;;;2.83;1.00;;;22.00;99.90;;;;;;5064197;28;20211;-70
2023/06/13 02:47:33;;;;;;;4.00;1.20;;;22.30;99.90;;;;;;5057267;28;20715;-70
2023/06/13 02:50:02;;;;;;;2.90;1.03;;;22.10;99.90;;;;;;5052694;28;20177;-70
2023/06/13 02:52:31;;;;;;;4.00;1.20;;;22.30;99.90;;;;;;5052663;28;20196;-70
2023/06/13 02:54:59;;;;;;;1.30;0.77;;;22.30;99.90;;;;;;5052943;28;20180;-70
2023/06/13 02:57:27;;;;;;;2.43;0.87;;;22.00;99.90;;;;;;5053320;28;20192;-68
2023/06/13 02:59:54;;;;;;;4.10;1.13;;;21.60;99.90;;;;;;5054715;28;20299;-70
2023/06/13 03:02:25;;;;;;;4.57;1.13;;;21.40;99.90;;;;;;5052733;28;20273;-70
2023/06/13 03:04:54;;;;;;;1.57;1.10;;;21.90;99.90;;;;;;5052248;28;20313;-70
2023/06/13 03:07:23;;;;;;;1.80;0.90;;;22.30;99.90;;;;;;5064822;28;20189;-70
2023/06/13 03:09:51;;;;;;;2.90;1.20;;;22.40;99.90;;;;;;5072564;28;20275;-71
2023/06/13 03:12:19;;;;;;;2.93;1.03;;;22.50;99.90;;;;;;5072575;28;20258;-69
2023/06/13 03:14:47;;;;;;;1.33;0.67;;;22.60;99.90;;;;;;5072053;28;20179;-70
2023/06/13 03:17:16;;;;;;;3.60;1.10;;;22.90;99.90;;;;;;5061207;28;20557;-70
2023/06/13 03:19:44;;;;;;;2.57;0.90;;;22.90;99.90;;;;;;5069506;28;20369;-69
2023/06/13 03:22:14;;;;;;;2.10;1.00;;;23.20;99.90;;;;;;5069419;28;20192;-70
2023/06/13 03:24:45;;;;;;;1.40;0.83;;;23.10;99.90;;;;;;5053251;28;20230;-70
2023/06/13 03:27:14;;;;;;;3.93;0.90;;;22.80;99.90;;;;;;5069801;28;20191;-69
2023/06/13 03:29:42;;;;;;;6.90;1.43;;;22.70;99.90;;;;;;5071209;28;20192;-69
2023/06/13 03:32:11;;;;;;;2.00;0.80;;;22.70;99.90;;;;;;5070548;28;20570;-70
2023/06/13 03:34:40;;;;;;;1.40;0.90;;;22.50;99.90;;;;;;5061293;28;20657;-70
2023/06/13 03:40:30;;;;;;;3.07;1.03;;;22.70;99.90;;;;;;5050247;28;21795;-71
2023/06/13 03:42:58;;;;;;;2.00;0.60;;;22.90;99.90;;;;;;5062275;28;20199;-70
2023/06/13 03:45:26;;;;;;;1.83;0.67;;;23.30;99.90;;;;;;5051204;28;20993;-70
2023/06/13 03:47:54;;;;;;;1.73;0.90;;;23.70;99.90;;;;;;5065425;28;20229;-70
2023/06/13 03:50:22;;;;;;;3.47;0.80;;;23.60;99.90;;;;;;5071225;28;20172;-70
2023/06/13 03:52:50;;;;;;;3.03;1.33;;;23.10;99.90;;;;;;5053309;28;20202;-71
2023/06/13 03:55:18;;;;;;;4.53;0.90;;;22.70;99.90;;;;;;5053098;28;20562;-71
2023/06/13 03:57:46;;;;;;;0.80;0.70;;;22.80;99.90;;;;;;5058252;28;20183;-70
2023/06/13 04:00:14;;;;;;;2.27;0.80;;;22.90;99.90;;;;;;5070933;28;20647;-70
2023/06/13 04:02:42;;;;;;;1.47;1.23;;;22.50;99.90;;;;;;5040029;28;20279;-71
2023/06/13 04:05:12;;;;;;;1.13;0.80;;;22.00;99.90;;;;;;5050407;28;20196;-70
2023/06/13 04:07:40;;;;;;;2.43;1.10;;;22.10;99.90;;;;;;5069516;28;20244;-70
2023/06/13 04:10:08;;;;;;;2.83;1.10;;;22.00;99.90;;;;;;5060695;28;20184;-71
2023/06/13 04:12:36;;;;;;;2.07;0.90;;;21.70;99.90;;;;;;5050877;28;20587;-70
2023/06/13 04:15:06;;;;;;;1.83;1.10;;;21.30;99.90;;;;;;5050735;28;20318;-71
2023/06/13 04:17:37;;;;;;;1.47;1.15;;;21.30;99.90;;;;;;5007067;28;3616695;-71
2023/06/13 04:20:08;;;;;;;1.73;0.93;;;22.10;99.90;;;;;;5071164;28;20256;-72
2023/06/13 04:22:36;;;;;;;4.20;1.00;;;22.50;99.90;;;;;;5071200;28;20191;-71
2023/06/13 04:25:04;;;;;;;1.70;0.97;;;22.90;99.90;;;;;;5071234;28;20254;-70
2023/06/13 04:27:32;;;;;;;2.50;1.20;;;22.90;99.90;;;;;;5071240;28;20201;-70
2023/06/13 04:30:00;;;;;;;1.47;0.80;;;22.80;99.90;;;;;;5071605;28;20187;-70
2023/06/13 04:32:28;;;;;;;1.03;0.70;;;23.00;99.90;;;;;;5054313;28;20187;-70
2023/06/13 04:34:58;;;;;;;2.73;1.00;;;22.90;99.90;;;;;;5071068;28;20194;-70
2023/06/13 04:37:26;;;;;;;1.70;0.80;;;23.00;99.90;;;;;;5071282;28;20203;-71
2023/06/13 04:39:55;;;;;;;2.07;1.20;;;23.20;99.90;;;;;;5071076;28;20241;-71
2023/06/13 04:42:30;;;;;;;2.80;0.90;;;23.20;99.90;;;;;;5058336;28;20238;-72
2023/06/13 04:45:01;;;;;;;3.53;1.60;;;23.70;99.90;;;;;;5073146;28;20241;-71
2023/06/13 04:47:33;;;;;;;3.87;1.13;;;24.00;99.90;;;;;;5074638;28;20710;-72
2023/06/13 04:50:01;;;;;;;5.00;1.37;;;24.20;99.90;;;;;;5075216;28;20190;-71
2023/06/13 04:52:33;;;;;;;11.60;4.23;;;24.10;99.90;;;;;;5074687;28;20180;-69
2023/06/13 04:55:02;;;;;;;2.23;1.30;;;23.90;99.90;;;;;;5074873;28;20208;-71
2023/06/13 04:57:31;;;;;;;1.50;0.90;;;23.60;99.90;;;;;;5056650;28;20266;-71
2023/06/13 05:00:06;;;;;;;0.97;0.80;;;23.40;99.90;;;;;;5074403;28;20176;-72
2023/06/13 05:02:35;;;;;;;1.23;0.83;;;23.50;99.90;;;;;;5074462;28;20562;-71
2023/06/13 05:05:04;;;;;;;3.57;0.77;;;23.30;99.90;;;;;;5074735;28;20215;-72
2023/06/13 05:07:32;;;;;;;1.00;0.70;;;23.20;99.90;;;;;;5074694;28;20210;-71
2023/06/13 05:10:00;;;;;;;4.00;0.90;;;23.00;99.90;;;;;;5074252;28;20685;-72
2023/06/13 05:12:27;;;;;;;1.80;0.77;;;22.70;99.90;;;;;;5074649;28;20168;-71
2023/06/13 05:14:55;;;;;;;7.77;1.70;;;22.60;99.90;;;;;;5074452;28;20176;-72
2023/06/13 05:17:23;;;;;;;2.77;1.23;;;22.80;99.90;;;;;;5074080;28;20176;-71
2023/06/13 05:19:52;;;;;;;1.80;0.87;;;22.80;99.90;;;;;;5066327;28;20224;-72
2023/06/13 05:22:20;;;;;;;1.43;0.73;;;22.50;99.90;;;;;;5054570;28;20179;-71
2023/06/13 05:24:48;;;;;;;4.67;1.30;;;22.30;99.90;;;;;;5059735;28;20251;-71
2023/06/13 05:27:16;;;;;;;3.63;1.27;;;22.00;99.90;;;;;;5073796;28;20202;-72
2023/06/13 05:29:43;;;;;;;2.13;1.10;;;21.80;99.90;;;;;;5074090;28;20183;-71
2023/06/13 05:32:11;;;;;;;3.37;0.93;;;21.70;99.90;;;;;;5073857;28;20538;-70
2023/06/13 05:34:39;;;;;;;1.07;0.90;;;21.20;99.90;;;;;;5073635;28;20558;-70
2023/06/13 05:37:10;;;;;;;2.47;1.10;;;21.30;99.90;;;;;;5066123;28;20176;-70
2023/06/13 05:39:38;;;;;;;1.90;0.90;;;20.90;99.90;;;;;;5053835;28;20679;-70
2023/06/13 05:42:07;;;;;;;3.50;0.97;;;20.40;99.90;;;;;;5053789;28;20173;-70
2023/06/13 05:44:35;;;;;;;3.90;1.00;;;20.30;99.90;;;;;;5053775;28;20204;-70
2023/06/13 05:47:03;;;;;;;2.03;1.13;;;20.10;99.90;;;;;;5060528;28;20184;-71
2023/06/13 05:49:31;;;;;;;2.03;1.20;;;19.90;99.90;;;;;;5055951;28;20662;-71
2023/06/13 05:51:59;;;;;;;3.03;1.10;;;19.80;99.90;;;;;;5065694;28;20181;-68
2023/06/13 05:54:26;;;;;;;4.87;1.37;;;19.70;99.90;;;;;;5061801;28;20184;-69
2023/06/13 05:56:54;;;;;;;2.90;1.43;;;19.70;99.90;;;;;;5063215;28;20202;-69
2023/06/13 05:59:22;;;;;;;1.50;1.00;;;19.50;99.90;;;;;;5053379;28;20186;-69
2023/06/13 06:01:50;;;;;;;4.83;1.30;;;19.50;99.90;;;;;;5054448;28;20724;-68
2023/06/13 06:04:18;;;;;;;2.53;1.10;;;19.50;99.90;;;;;;5053654;28;20210;-67
2023/06/13 06:06:46;;;;;;;7.73;1.20;;;19.50;99.90;;;;;;5053708;28;20182;-68
2023/06/13 06:09:13;;;;;;;2.83;1.17;;;19.40;99.90;;;;;;5053672;28;20178;-68
2023/06/13 06:11:41;;;;;;;1.60;1.00;;;19.20;99.90;;;;;;5036668;28;20185;-68
2023/06/13 06:14:09;;;;;;;4.63;1.40;;;19.20;99.90;;;;;;5055553;28;20263;-68
2023/06/13 06:16:37;;;;;;;1.73;1.30;;;19.10;99.90;;;;;;5053270;28;20187;-69
2023/06/13 06:19:04;;;;;;;2.43;0.90;;;19.10;99.90;;;;;;5065911;28;20224;-68
2023/06/13 06:21:32;;;;;;;3.83;1.00;;;19.00;99.90;;;;;;5074206;28;20545;-69
2023/06/13 06:24:01;;;;;;;3.77;1.17;;;19.00;99.90;;;;;;5072876;28;20215;-69
2023/06/13 06:26:29;;;;;;;3.17;0.90;;;18.80;99.90;;;;;;5073356;28;20204;-69
2023/06/13 06:28:57;;;;;;;0.87;0.80;;;18.70;99.90;;;;;;5073279;28;20188;-68
2023/06/13 06:31:27;;;;;;;2.17;1.30;;;18.70;99.90;;;;;;5072875;28;20176;-69
2023/06/13 06:33:55;;;;;;;3.23;1.10;;;18.60;99.90;;;;;;5073089;28;20182;-69
2023/06/13 06:36:23;;;;;;;1.40;0.90;;;18.60;99.90;;;;;;5055238;28;20586;-69
2023/06/13 06:38:51;;;;;;;2.10;1.10;;;18.40;99.90;;;;;;5072743;28;20313;-69
2023/06/13 06:41:20;;;;;;;1.40;1.17;;;18.40;99.90;;;;;;5072941;28;20191;-69
2023/06/13 06:43:47;;;;;;;1.53;1.07;;;18.20;99.90;;;;;;5072895;28;20214;-68
2023/06/13 06:46:15;;;;;;;4.33;1.60;;;18.10;99.90;;;;;;5072546;28;20230;-69
2023/06/13 06:48:43;;;;;;;2.00;1.40;;;17.90;99.90;;;;;;5072863;28;20215;-69
2023/06/13 06:51:11;;;;;;;2.23;1.30;;;17.80;99.90;;;;;;5072780;28;20199;-69
2023/06/13 06:53:40;;;;;;;7.77;1.80;;;17.80;99.90;;;;;;5072394;28;20176;-68
2023/06/13 06:56:07;;;;;;;6.10;1.47;;;17.70;99.90;;;;;;5072689;28;20200;-68
2023/06/13 06:58:36;;;;;;;4.27;2.00;;;17.60;99.90;;;;;;5072804;28;20645;-68
2023/06/13 07:01:04;;;;;;;4.23;1.70;;;17.50;99.90;;;;;;5072242;28;20531;-68
2023/06/13 07:03:31;;;;;;;6.03;2.00;;;17.40;99.90;;;;;;5072377;28;20200;-68
2023/06/13 07:05:59;;;;;;;4.97;1.67;;;17.30;99.90;;;;;;5072451;28;20183;-69
2023/06/13 07:08:27;;;;;;;4.37;1.93;;;17.10;99.90;;;;;;5071562;28;20203;-69
2023/06/13 07:10:55;;;;;;;3.20;1.80;;;17.00;99.90;;;;;;5072590;28;20180;-66
2023/06/13 07:13:22;;;;;;;5.93;2.00;;;16.80;99.90;;;;;;5055800;28;20191;-68
2023/06/13 07:15:50;;;;;;;3.97;1.90;;;16.60;99.90;;;;;;5072329;28;20218;-68
2023/06/13 07:18:18;;;;;;;3.07;1.63;;;16.50;99.90;;;;;;5072223;28;20755;-69
2023/06/13 07:20:46;;;;;;;4.77;2.10;;;16.30;99.90;;;;;;5072290;28;20180;-69
2023/06/13 07:23:14;;;;;;;4.10;2.30;;;16.10;99.90;;;;;;5071980;28;20212;-68
2023/06/13 07:25:42;;;;;;;2.73;1.70;;;15.90;99.90;;;;;;5072009;28;20652;-69
2023/06/13 07:28:10;;;;;;;4.37;1.90;;;15.90;99.90;;;;;;5072354;28;20552;-69
2023/06/13 07:30:38;;;;;;;3.90;2.17;;;15.70;99.90;;;;;;5071871;28;20203;-68
2023/06/13 07:33:05;;;;;;;6.60;2.03;;;15.60;99.90;;;;;;5072222;28;20194;-68
2023/06/13 07:35:33;;;;;;;5.00;2.17;;;15.50;99.90;;;;;;5072150;28;20179;-69
2023/06/13 07:38:01;;;;;;;4.33;2.07;;;15.40;99.90;;;;;;5071715;28;20234;-68
2023/06/13 07:40:29;;;;;;;5.00;2.10;;;15.40;99.90;;;;;;5071878;28;20176;-68
2023/06/13 07:42:57;;;;;;;4.43;1.80;;;15.40;99.90;;;;;;5071923;28;20187;-68
2023/06/13 07:45:24;;;;;;;5.50;2.03;;;15.40;99.90;;;;;;5071570;28;20172;-68
2023/06/13 07:47:52;;;;;;;8.80;3.97;;;15.50;99.90;;;;;;5072061;28;20176;-68
2023/06/13 07:50:20;;;;;;;10.37;3.40;;;15.50;99.90;;;;;;5072078;28;20203;-67
2023/06/13 07:52:48;;;;;;;14.90;8.40;;;15.50;99.90;;;;;;5071482;28;20183;-68
2023/06/13 07:55:16;;;;;;;15.77;8.97;;;15.40;99.90;;;;;;5071963;28;20262;-68
2023/06/13 07:57:44;;;;;;;16.57;7.87;;;15.30;99.90;;;;;;5072014;28;20180;-67
2023/06/13 08:00:16;;;;;;;7.97;5.80;;;15.20;99.90;;;;;;5071283;28;20175;-68
2023/06/13 08:02:45;;;;;;;9.33;3.23;;;15.20;99.90;;;;;;5071695;28;20231;-69
2023/06/13 08:05:13;;;;;;;7.00;3.07;;;15.20;99.90;;;;;;5071936;28;20196;-67
2023/06/13 08:07:42;;;;;;;5.60;3.07;;;15.30;99.90;;;;;;5073766;28;20581;-68
2023/06/13 08:10:09;;;;;;;5.10;2.70;;;15.40;99.90;;;;;;5071671;28;20242;-69
2023/06/13 08:12:37;;;;;;;5.27;2.60;;;15.40;99.90;;;;;;5071713;28;20176;-68
2023/06/13 08:15:06;;;;;;;4.00;3.20;;;15.40;99.90;;;;;;5071443;28;20250;-68
2023/06/13 08:17:41;;;;;;;5.43;3.70;;;15.30;99.90;;;;;;5071556;28;20176;-68
2023/06/13 08:20:09;;;;;;;7.30;2.40;;;15.50;99.90;;;;;;5075822;28;20191;-68
2023/06/13 08:22:41;;;;;;;4.30;1.50;;;15.80;99.90;;;;;;5069405;28;20177;-67
2023/06/13 08:25:09;;;;;;;5.27;1.47;;;16.40;99.90;;;;;;5059080;28;20251;-68
2023/06/13 08:27:39;;;;;;;2.40;1.00;;;16.60;99.90;;;;;;5055226;28;20200;-68
2023/06/13 08:30:08;;;;;;;1.53;0.80;;;16.60;99.90;;;;;;5054471;28;20234;-68
2023/06/13 08:32:36;;;;;;;2.77;0.80;;;16.40;99.90;;;;;;5055155;28;20582;-68
2023/06/13 08:35:04;;;;;;;1.17;0.90;;;16.30;99.90;;;;;;5058366;28;20188;-68
2023/06/13 08:37:32;;;;;;;4.00;3.40;;;16.10;99.90;;;;;;5074478;28;20183;-69
2023/06/13 08:39:59;;;;;;;3.83;1.97;;;16.00;99.90;;;;;;5075142;28;20183;-68
2023/06/13 08:42:27;;;;;;;4.37;1.30;;;15.90;99.90;;;;;;5061738;28;20185;-68
2023/06/13 08:44:55;;;;;;;2.20;2.00;;;15.80;99.90;;;;;;5053485;28;20220;-68
2023/06/13 08:47:23;;;;;;;0.80;0.80;;;15.80;99.90;;;;;;5054526;28;20226;-69
2023/06/13 08:49:55;;;;;;;4.33;2.80;;;15.70;99.90;;;;;;5054866;28;20235;-68
2023/06/13 08:52:25;;;;;;;2.67;1.70;;;15.70;99.90;;;;;;5054006;28;20184;-68
2023/06/13 08:54:55;;;;;;;2.10;1.00;;;15.60;99.90;;;;;;5054830;28;20226;-67
2023/06/13 08:57:25;;;;;;;2.40;0.97;;;15.50;99.90;;;;;;5054729;28;20582;-69
2023/06/13 08:59:55;;;;;;;0.80;0.80;;;15.50;99.90;;;;;;5054288;28;20173;-69
2023/06/13 09:02:26;;;;;;;1.20;0.80;;;15.30;99.90;;;;;;5054614;28;20184;-69
2023/06/13 09:04:55;;;;;;;2.00;0.90;;;15.20;99.90;;;;;;5036557;28;20658;-69
2023/06/13 09:07:23;;;;;;;1.40;0.80;;;15.10;99.90;;;;;;5053924;28;20175;-69
2023/06/13 09:09:52;;;;;;;1.03;0.90;;;15.00;99.90;;;;;;5054541;28;20184;-69
2023/06/13 09:12:20;;;;;;;1.17;0.90;;;15.00;99.90;;;;;;5054355;28;20211;-69
2023/06/13 09:14:48;;;;;;;4.40;0.90;;;14.90;99.90;;;;;;5053869;28;20200;-69
2023/06/13 09:17:17;;;;;;;1.17;0.83;;;15.00;99.90;;;;;;5054474;28;20667;-69
2023/06/13 09:19:45;;;;;;;0.90;0.80;;;15.00;99.90;;;;;;5071782;28;20216;-69
2023/06/13 09:22:15;;;;;;;0.97;0.70;;;15.00;99.90;;;;;;5073765;28;20180;-68
2023/06/13 09:24:43;;;;;;;1.80;0.60;;;15.00;99.90;;;;;;5074025;28;20225;-68
2023/06/13 09:27:12;;;;;;;2.40;0.73;;;14.90;99.90;;;;;;5074202;28;20212;-68
2023/06/13 09:29:39;;;;;;;1.00;0.70;;;14.80;99.90;;;;;;5072682;28;20236;-69
2023/06/13 09:32:09;;;;;;;0.93;0.83;;;14.60;99.90;;;;;;5074639;28;20232;-69
2023/06/13 09:34:38;;;;;;;1.90;0.73;;;14.50;99.90;;;;;;5074182;28;20188;-68
2023/06/13 09:37:10;;;;;;;6.03;1.00;;;14.50;99.90;;;;;;5073966;28;20174;-69
2023/06/13 09:39:47;;;;;;;1.57;1.10;;;14.50;99.90;;;;;;5073938;28;20244;-69
2023/06/13 09:42:15;;;;;;;2.23;1.20;;;14.40;99.90;;;;;;5048838;28;20175;-68
2023/06/13 09:44:43;;;;;;;3.77;1.50;;;14.40;99.90;;;;;;5073596;28;20217;-69
2023/06/13 09:47:22;;;;;;;3.10;1.30;;;14.50;99.90;;;;;;5073951;28;20191;-69
2023/06/13 09:50:00;;;;;;;4.73;2.30;;;14.60;99.90;;;;;;5073608;28;20172;-69
2023/06/13 09:52:32;;;;;;;2.57;1.90;;;14.60;99.90;;;;;;5073708;28;20251;-68
2023/06/13 09:55:00;;;;;;;3.93;2.20;;;14.70;99.90;;;;;;5073770;28;20179;-69
2023/06/13 09:57:28;;;;;;;3.03;2.20;;;14.80;99.90;;;;;;5072971;28;20258;-69
2023/06/13 09:59:56;;;;;;;4.33;2.53;;;14.80;99.90;;;;;;5073672;28;20179;-69
2023/06/13 10:02:23;;;;;;;9.70;3.30;;;14.80;99.90;;;;;;5073597;28;20175;-69
2023/06/13 10:04:54;;;;;;;5.80;2.83;;;14.80;99.90;;;;;;5072935;28;20731;-68
2023/06/13 10:07:22;;;;;;;4.53;3.17;;;14.80;99.90;;;;;;5073480;28;20183;-69
2023/06/13 10:09:50;;;;;;;5.30;3.07;;;14.70;99.90;;;;;;5073362;28;20190;-68
2023/06/13 10:12:24;;;;;;;6.23;3.40;;;14.60;99.90;;;;;;5073100;28;20642;-68
2023/06/13 10:15:00;;;;;;;6.73;3.30;;;14.60;99.90;;;;;;5073916;28;20203;-68
2023/06/13 10:17:33;;;;;;;4.10;2.67;;;14.60;99.90;;;;;;5072904;28;20176;-68
2023/06/13 10:20:10;;;;;;;4.53;2.50;;;14.60;99.90;;;;;;5035066;28;20200;-68
2023/06/13 10:22:41;;;;;;;3.43;2.13;;;14.60;99.90;;;;;;5035259;28;20176;-68
2023/06/13 10:25:10;;;;;;;7.20;2.10;;;14.70;99.90;;;;;;5027380;28;20300;-69
2023/06/13 10:27:43;;;;;;;2.40;1.80;;;14.60;99.90;;;;;;5053178;28;20176;-69
2023/06/13 10:30:32;;;;;;;2.97;1.80;;;14.60;99.90;;;;;;5045650;28;20214;-68
2023/06/13 10:33:24;;;;;;;2.87;1.70;;;14.60;99.90;;;;;;5052993;28;20185;-68
2023/06/13 10:36:00;;;;;;;4.70;2.00;;;14.60;99.90;;;;;;5052559;28;20516;-69
2023/06/13 10:38:53;;;;;;;2.27;1.70;;;14.60;99.90;;;;;;5052930;28;20282;-68
2023/06/13 10:41:30;;;;;;;2.83;2.20;;;14.60;99.90;;;;;;5051721;28;20181;-69
2023/06/13 10:44:22;;;;;;;5.33;1.90;;;14.50;99.90;;;;;;5051941;28;20212;-68
2023/06/13 10:46:50;;;;;;;1.90;1.63;;;14.30;99.90;;;;;;5034889;28;20545;-69
2023/06/13 10:49:18;;;;;;;2.87;1.80;;;14.30;99.90;;;;;;5052415;28;20541;-68
2023/06/13 10:51:46;;;;;;;2.60;1.90;;;14.30;99.90;;;;;;5052273;28;20183;-69
2023/06/13 10:54:15;;;;;;;5.53;2.30;;;14.20;99.90;;;;;;5052547;28;20189;-68
2023/06/13 10:56:44;;;;;;;6.10;2.30;;;14.10;99.90;;;;;;5052056;28;20181;-69
2023/06/13 10:59:17;;;;;;;3.53;2.60;;;14.10;99.90;;;;;;5052356;28;20178;-68
2023/06/13 11:01:45;;;;;;;4.90;2.60;;;14.10;99.90;;;;;;5052163;28;20238;-68
2023/06/13 11:04:21;;;;;;;3.87;2.33;;;14.00;99.90;;;;;;5052096;28;20243;-68
2023/06/13 11:06:53;;;;;;;4.60;2.20;;;13.90;99.90;;;;;;5052222;28;20201;-68
2023/06/13 11:09:21;;;;;;;3.80;1.97;;;13.80;99.90;;;;;;5034416;28;20231;-69
2023/06/13 11:12:00;;;;;;;4.60;2.00;;;13.70;99.90;;;;;;5051238;28;20199;-69
2023/06/13 11:14:38;;;;;;;3.23;2.00;;;13.80;99.90;;;;;;5052217;28;20187;-68
2023/06/13 11:17:06;;;;;;;3.00;1.73;;;13.60;99.90;;;;;;5043992;28;20184;-68
2023/06/13 11:19:35;;;;;;;4.77;1.80;;;13.60;99.90;;;;;;5068215;28;20226;-68
2023/06/13 11:22:03;;;;;;;3.27;1.90;;;13.50;99.90;;;;;;5058482;28;20183;-68
2023/06/13 11:24:35;;;;;;;2.50;1.60;;;13.40;99.90;;;;;;5051707;28;20214;-68
2023/06/13 11:27:04;;;;;;;3.57;1.77;;;13.30;99.90;;;;;;5071341;28;20178;-68
2023/06/13 11:29:33;;;;;;;4.23;1.40;;;13.30;99.90;;;;;;5070023;28;20185;-69
2023/06/13 11:32:04;;;;;;;6.27;1.60;;;13.20;99.90;;;;;;5051278;28;20195;-68
2023/06/13 11:34:42;;;;;;;3.23;1.67;;;13.10;99.90;;;;;;5051381;28;20180;-68
2023/06/13 11:37:30;;;;;;;2.67;1.80;;;13.00;99.90;;;;;;5071713;28;20171;-68
2023/06/13 11:39:59;;;;;;;3.40;1.93;;;13.10;99.90;;;;;;5071521;28;20222;-68
2023/06/13 11:42:29;;;;;;;3.33;2.00;;;13.30;99.90;;;;;;5062220;28;20551;-68
2023/06/13 11:44:57;;;;;;;5.07;2.37;;;13.30;99.90;;;;;;5051152;28;20264;-68
2023/06/13 11:47:25;;;;;;;5.33;2.20;;;13.10;99.90;;;;;;5051388;28;20175;-69
2023/06/13 11:49:57;;;;;;;3.37;2.10;;;12.90;99.90;;;;;;5051348;28;20770;-69
2023/06/13 11:52:25;;;;;;;4.73;1.90;;;12.70;99.90;;;;;;5050843;28;20667;-68
2023/06/13 11:54:54;;;;;;;3.30;1.87;;;12.50;99.90;;;;;;5051094;28;20189;-68
2023/06/13 11:57:23;;;;;;;2.30;1.83;;;12.50;99.90;;;;;;5051100;28;20179;-68
2023/06/13 12:00:00;;;;;;;3.20;2.00;;;12.50;99.90;;;;;;5051119;28;21090;-68
2023/06/13 12:02:28;;;;;;;3.73;2.00;;;12.60;99.90;;;;;;5051260;28;20190;-68
2023/06/13 12:04:56;;;;;;;4.30;2.23;;;12.50;99.90;;;;;;5050988;28;20209;-67
2023/06/13 12:07:24;;;;;;;4.00;2.07;;;12.40;99.90;;;;;;5051372;28;20206;-68
2023/06/13 12:09:53;;;;;;;4.67;2.23;;;12.30;99.90;;;;;;5050917;28;20181;-68
2023/06/13 12:12:21;;;;;;;5.50;2.20;;;12.20;99.90;;;;;;5050492;28;20568;-68
2023/06/13 12:14:55;;;;;;;4.23;1.90;;;12.40;99.90;;;;;;5050492;28;20190;-68
2023/06/13 12:17:26;;;;;;;2.83;2.13;;;12.30;99.90;;;;;;5051083;28;20193;-68
2023/06/13 12:20:12;;;;;;;2.33;1.90;;;12.30;99.90;;;;;;5053885;28;20230;-69
2023/06/13 12:22:40;;;;;;;2.53;2.07;;;12.20;99.90;;;;;;5045709;28;20210;-68
2023/06/13 12:25:08;;;;;;;3.80;1.70;;;12.20;99.90;;;;;;5063444;28;20718;-69
2023/06/13 12:27:36;;;;;;;3.73;2.17;;;12.30;99.90;;;;;;5072382;28;20639;-68
2023/06/13 12:30:17;;;;;;;6.77;2.20;;;12.30;99.90;;;;;;5072171;28;20666;-69
2023/06/13 12:32:56;;;;;;;3.50;2.27;;;12.20;99.90;;;;;;5052788;28;20177;-69
2023/06/13 12:35:24;;;;;;;3.67;2.20;;;12.10;99.90;;;;;;5058960;28;20629;-69
2023/06/13 12:38:26;;;;;;;8.57;2.27;;;12.00;99.90;;;;;;5071917;28;20181;-69
2023/06/13 12:40:54;;;;;;;2.70;1.90;;;11.90;99.90;;;;;;5071581;28;20181;-69
2023/06/13 12:43:26;;;;;;;5.30;2.73;;;11.70;99.90;;;;;;5071677;28;20206;-69
2023/06/13 12:45:59;;;;;;;4.87;2.50;;;11.80;99.90;;;;;;5070801;28;20173;-69
2023/06/13 12:48:27;;;;;;;5.17;2.67;;;11.70;99.90;;;;;;5071850;28;20183;-69
2023/06/13 12:50:59;;;;;;;3.70;2.47;;;11.60;99.90;;;;;;5071862;28;20186;-68
2023/06/13 12:53:26;;;;;;;3.07;2.40;;;11.40;99.90;;;;;;5052370;28;20215;-69
2023/06/13 12:55:54;;;;;;;6.77;3.13;;;11.30;99.90;;;;;;5057121;28;20193;-69
2023/06/13 12:58:38;;;;;;;6.50;2.73;;;11.20;99.90;;;;;;5072207;28;20202;-69
2023/06/13 13:01:07;;;;;;;3.70;2.43;;;11.20;99.90;;;;;;5071841;28;20178;-69
2023/06/13 13:03:36;;;;;;;6.70;2.67;;;11.10;99.90;;;;;;5072043;28;20201;-69
2023/06/13 13:06:04;;;;;;;4.80;2.50;;;11.10;99.90;;;;;;5073828;28;20189;-69